Time;durP1;ratioP1;P1;durP2;ratioP2;P2;SDS_P1;SDS_P2;PMS_P1;PMS_P2;Temp;Humidity;BMP_temperature;BMP_pressure;BME280_temperature;BME280_humidity;BME280_pressure;Samples;Min_cycle;Max_cycle;Signal;HPM_P1;HPM_P2
2023/09/25 00:01:27;;;;;;;1.33;0.70;;;23.10;52.70;;;;;;6270307;28;20488;-70
2023/09/25 00:04:28;;;;;;;1.40;0.80;;;23.00;52.70;;;;;;6267746;28;20083;-70
2023/09/25 00:07:29;;;;;;;1.38;0.70;;;23.00;52.80;;;;;;6269119;28;20116;-70
2023/09/25 00:10:31;;;;;;;1.52;0.80;;;23.00;52.80;;;;;;6269682;28;20024;-70
2023/09/25 00:13:32;;;;;;;1.27;1.00;;;23.00;52.80;;;;;;6267214;28;20582;-70
2023/09/25 00:16:33;;;;;;;0.73;0.60;;;23.00;52.70;;;;;;6261132;28;20026;-69
2023/09/25 00:19:33;;;;;;;0.80;0.70;;;23.00;52.70;;;;;;6258231;28;20032;-70
2023/09/25 00:22:35;;;;;;;1.50;0.70;;;23.00;52.70;;;;;;6262906;28;20621;-70
2023/09/25 00:25:36;;;;;;;1.02;0.70;;;23.00;52.70;;;;;;6267481;28;20559;-69
2023/09/25 00:28:39;;;;;;;0.88;0.70;;;23.00;52.70;;;;;;6257054;28;20104;-69
2023/09/25 00:31:39;;;;;;;0.90;0.73;;;23.10;52.60;;;;;;6251723;28;20037;-69
2023/09/25 00:34:41;;;;;;;1.38;0.88;;;23.00;52.60;;;;;;6257210;28;20032;-70
2023/09/25 00:37:41;;;;;;;1.15;0.70;;;23.00;52.60;;;;;;6268409;28;20056;-70
2023/09/25 00:40:43;;;;;;;0.82;0.77;;;23.00;52.60;;;;;;6260545;28;20432;-70
2023/09/25 00:43:43;;;;;;;1.35;0.70;;;23.00;52.60;;;;;;6260352;28;20025;-68
2023/09/25 00:46:46;;;;;;;1.00;0.73;;;23.00;52.50;;;;;;6271508;28;20025;-70
2023/09/25 00:49:47;;;;;;;0.63;0.60;;;23.00;52.50;;;;;;6252864;28;20108;-71
2023/09/25 00:52:48;;;;;;;0.57;0.50;;;23.00;52.50;;;;;;6257905;28;20029;-70
2023/09/25 00:55:49;;;;;;;1.13;0.82;;;23.00;52.50;;;;;;6250752;28;20507;-70
2023/09/25 00:58:51;;;;;;;1.02;0.73;;;23.00;52.60;;;;;;6266008;28;20033;-70
2023/09/25 01:01:53;;;;;;;0.95;0.70;;;23.10;52.60;;;;;;6265527;28;20017;-70
2023/09/25 01:04:53;;;;;;;2.10;0.82;;;23.00;52.50;;;;;;6252812;28;20096;-70
2023/09/25 01:07:54;;;;;;;1.48;0.60;;;23.00;52.50;;;;;;6266664;28;20028;-71
2023/09/25 01:10:55;;;;;;;1.13;0.80;;;23.00;52.40;;;;;;6253558;28;20484;-71
2023/09/25 01:13:56;;;;;;;1.20;0.80;;;23.10;52.50;;;;;;6251672;28;20504;-70
2023/09/25 01:16:57;;;;;;;1.40;0.70;;;23.00;52.40;;;;;;6266492;28;20021;-70
2023/09/25 01:20:15;;;;;;;0.90;0.73;;;23.00;52.40;;;;;;6259486;28;20030;-71
2023/09/25 01:23:15;;;;;;;1.27;0.60;;;23.00;52.40;;;;;;6267767;28;20100;-70
2023/09/25 01:26:16;;;;;;;0.75;0.60;;;23.00;52.40;;;;;;6258129;28;20452;-70
2023/09/25 01:29:17;;;;;;;0.80;0.70;;;23.00;52.40;;;;;;6249749;28;20063;-70
2023/09/25 01:32:18;;;;;;;0.85;0.60;;;23.00;52.40;;;;;;6258079;28;20025;-69
2023/09/25 01:35:23;;;;;;;0.80;0.60;;;23.00;52.40;;;;;;6254733;28;20431;-70
2023/09/25 01:38:23;;;;;;;0.90;0.73;;;23.00;52.30;;;;;;6250787;28;20039;-70
2023/09/25 01:41:24;;;;;;;1.27;0.70;;;23.00;52.40;;;;;;6263558;28;20029;-71
2023/09/25 01:44:26;;;;;;;1.02;0.70;;;23.00;52.40;;;;;;6259140;28;20544;-70
2023/09/25 01:47:26;;;;;;;0.80;0.55;;;23.00;52.40;;;;;;6263223;28;20041;-70
2023/09/25 01:50:28;;;;;;;0.93;0.70;;;23.00;52.40;;;;;;6266303;28;20071;-70
2023/09/25 01:53:29;;;;;;;0.98;0.70;;;23.00;52.40;;;;;;6265837;28;20112;-70
2023/09/25 01:56:30;;;;;;;1.40;0.80;;;23.00;52.30;;;;;;6266415;28;20035;-71
2023/09/25 01:59:31;;;;;;;0.63;0.50;;;23.00;52.20;;;;;;6267410;28;20596;-71
2023/09/25 02:02:32;;;;;;;0.70;0.52;;;23.00;52.30;;;;;;6265058;28;20480;-70
2023/09/25 02:05:32;;;;;;;1.42;0.68;;;23.00;52.30;;;;;;6260913;28;20029;-70
2023/09/25 02:08:33;;;;;;;1.60;0.77;;;23.00;52.30;;;;;;6254945;28;20507;-70
2023/09/25 02:11:34;;;;;;;0.82;0.70;;;23.00;52.30;;;;;;6257849;28;20026;-70
2023/09/25 02:14:35;;;;;;;0.70;0.60;;;23.00;52.30;;;;;;6260579;28;20045;-70
2023/09/25 02:17:36;;;;;;;0.82;0.60;;;23.00;52.30;;;;;;6254059;28;20064;-70
2023/09/25 02:20:36;;;;;;;0.80;0.73;;;23.00;52.30;;;;;;6262146;28;20078;-70
2023/09/25 02:23:39;;;;;;;0.90;0.50;;;23.00;52.30;;;;;;6267025;28;20025;-70
2023/09/25 02:26:39;;;;;;;0.50;0.40;;;23.00;52.20;;;;;;6259012;28;20507;-70
2023/09/25 02:29:40;;;;;;;0.88;0.50;;;23.00;52.20;;;;;;6258354;28;20085;-70
2023/09/25 02:32:42;;;;;;;0.70;0.60;;;23.00;52.20;;;;;;6267348;28;20024;-70
2023/09/25 02:35:42;;;;;;;1.05;0.60;;;23.10;52.20;;;;;;6258795;28;20025;-70
2023/09/25 02:38:43;;;;;;;0.85;0.57;;;23.10;52.10;;;;;;6257570;28;20095;-70
2023/09/25 02:41:44;;;;;;;0.85;0.63;;;23.00;52.10;;;;;;6257348;28;20035;-70
2023/09/25 02:44:45;;;;;;;0.75;0.60;;;23.00;52.10;;;;;;6267251;28;20332;-70
2023/09/25 02:47:45;;;;;;;0.65;0.55;;;23.00;52.20;;;;;;6267668;28;20083;-71
2023/09/25 02:50:47;;;;;;;0.82;0.60;;;23.00;52.20;;;;;;6261143;28;20507;-69
2023/09/25 02:53:48;;;;;;;0.93;0.70;;;23.00;52.20;;;;;;6269483;28;20078;-70
2023/09/25 02:56:49;;;;;;;0.80;0.70;;;23.00;52.10;;;;;;6254131;28;20431;-70
2023/09/25 02:59:50;;;;;;;1.08;0.65;;;23.10;52.20;;;;;;6246764;28;20099;-70
2023/09/25 03:02:51;;;;;;;1.10;0.50;;;23.00;52.10;;;;;;6269777;28;20025;-71
2023/09/25 03:05:52;;;;;;;0.77;0.60;;;23.00;52.00;;;;;;6268310;28;20036;-70
2023/09/25 03:08:52;;;;;;;0.82;0.70;;;23.10;52.10;;;;;;6255243;28;20124;-70
2023/09/25 03:11:53;;;;;;;0.70;0.60;;;23.10;52.10;;;;;;6260049;28;20574;-70
2023/09/25 03:14:54;;;;;;;0.90;0.60;;;23.10;52.80;;;;;;6262734;28;20514;-70
2023/09/25 03:17:55;;;;;;;0.60;0.50;;;23.00;52.10;;;;;;6267693;28;20091;-70
2023/09/25 03:20:55;;;;;;;0.82;0.57;;;23.00;52.10;;;;;;6263859;28;20028;-71
2023/09/25 03:23:56;;;;;;;0.52;0.52;;;23.00;52.60;;;;;;6253160;28;20037;-70
2023/09/25 03:26:57;;;;;;;1.15;0.60;;;22.70;53.40;;;;;;6252822;28;20028;-70
2023/09/25 03:29:57;;;;;;;1.10;0.50;;;22.60;54.10;;;;;;6254989;28;20083;-70
2023/09/25 03:32:58;;;;;;;0.70;0.45;;;22.50;54.70;;;;;;6269189;28;20021;-71
2023/09/25 03:35:59;;;;;;;0.60;0.40;;;22.50;55.10;;;;;;6260737;28;20570;-70
2023/09/25 03:39:00;;;;;;;1.42;0.77;;;22.40;55.40;;;;;;6262273;28;20381;-70
2023/09/25 03:42:02;;;;;;;0.50;0.40;;;22.40;55.60;;;;;;6268327;28;20037;-70
2023/09/25 03:45:04;;;;;;;0.70;0.52;;;22.40;55.90;;;;;;6257612;28;20033;-70
2023/09/25 03:48:06;;;;;;;0.60;0.47;;;22.30;55.90;;;;;;6258965;28;20029;-71
2023/09/25 03:51:07;;;;;;;0.90;0.68;;;22.30;56.20;;;;;;6258720;28;20097;-71
2023/09/25 03:54:08;;;;;;;0.70;0.60;;;22.30;56.30;;;;;;6267069;28;20013;-70
2023/09/25 03:57:08;;;;;;;0.77;0.60;;;22.30;56.50;;;;;;6262586;28;20021;-70
2023/09/25 04:00:40;;;;;;;1.05;0.70;;;22.30;56.70;;;;;;6269971;28;20499;-70
2023/09/25 04:03:41;;;;;;;0.45;0.40;;;22.20;56.80;;;;;;6262044;28;20104;-70
2023/09/25 04:06:42;;;;;;;1.80;0.45;;;22.20;56.80;;;;;;6261690;28;20422;-70
2023/09/25 04:09:43;;;;;;;0.70;0.60;;;22.20;56.80;;;;;;6267547;28;20495;-71
2023/09/25 04:12:43;;;;;;;0.50;0.50;;;22.20;56.80;;;;;;6269761;28;20028;-71
2023/09/25 04:15:45;;;;;;;0.40;0.40;;;22.20;57.10;;;;;;6253367;28;20021;-70
2023/09/25 04:18:46;;;;;;;0.45;0.45;;;22.20;57.10;;;;;;6261000;28;20075;-71
2023/09/25 04:21:47;;;;;;;0.43;0.32;;;22.20;57.30;;;;;;6259845;28;20025;-72
2023/09/25 04:24:48;;;;;;;0.55;0.50;;;22.20;57.50;;;;;;6261282;28;20059;-70
2023/09/25 04:27:52;;;;;;;0.90;0.70;;;22.10;57.50;;;;;;6252435;28;20021;-70
2023/09/25 04:30:53;;;;;;;0.73;0.57;;;22.10;57.40;;;;;;6259422;28;20022;-71
2023/09/25 04:33:54;;;;;;;0.80;0.50;;;22.10;57.50;;;;;;6262019;28;20051;-71
2023/09/25 04:36:55;;;;;;;1.52;0.60;;;22.10;57.80;;;;;;6252455;28;20261;-70
2023/09/25 04:39:55;;;;;;;0.70;0.50;;;22.10;57.70;;;;;;6258944;28;20095;-70
2023/09/25 04:42:57;;;;;;;1.70;0.65;;;22.10;57.70;;;;;;6260720;28;20032;-70
2023/09/25 04:45:58;;;;;;;0.70;0.52;;;22.10;57.20;;;;;;6259279;28;20034;-71
2023/09/25 04:49:00;;;;;;;0.40;0.40;;;22.10;57.30;;;;;;6260724;28;20021;-70
2023/09/25 04:52:01;;;;;;;0.47;0.40;;;22.10;57.80;;;;;;6259324;28;20032;-70
2023/09/25 04:55:06;;;;;;;0.93;0.60;;;22.10;58.00;;;;;;6264876;28;20096;-70
2023/09/25 04:58:07;;;;;;;1.45;0.50;;;22.10;57.60;;;;;;6253583;28;20026;-70
2023/09/25 05:01:07;;;;;;;0.40;0.40;;;22.10;57.60;;;;;;6254059;28;20587;-69
2023/09/25 05:04:09;;;;;;;0.52;0.50;;;22.10;57.40;;;;;;6249370;28;20056;-69
2023/09/25 05:07:10;;;;;;;0.82;0.40;;;22.10;57.80;;;;;;6272448;28;20420;-69
2023/09/25 05:10:12;;;;;;;1.00;0.60;;;22.10;57.50;;;;;;6264667;28;20028;-69
2023/09/25 05:13:14;;;;;;;0.80;0.40;;;22.10;58.00;;;;;;6263032;28;20392;-70
2023/09/25 05:16:15;;;;;;;0.80;0.52;;;22.10;58.10;;;;;;6282444;28;20036;-70
2023/09/25 05:19:16;;;;;;;0.50;0.50;;;22.10;58.40;;;;;;6276277;28;20033;-70
2023/09/25 05:22:17;;;;;;;3.17;0.63;;;22.10;58.10;;;;;;6260189;28;20079;-70
2023/09/25 05:25:19;;;;;;;4.03;0.50;;;22.00;58.70;;;;;;6260420;28;20029;-69
2023/09/25 05:28:20;;;;;;;37.72;2.10;;;22.10;58.80;;;;;;6264093;28;20021;-69
2023/09/25 05:31:21;;;;;;;9.30;1.20;;;22.10;58.60;;;;;;6258985;28;20503;-69
2023/09/25 05:34:22;;;;;;;12.07;0.90;;;22.10;58.40;;;;;;6280542;28;20020;-70
2023/09/25 05:37:23;;;;;;;37.10;2.40;;;22.10;58.40;;;;;;6267103;28;20544;-70
2023/09/25 05:40:24;;;;;;;20.67;1.40;;;22.10;58.50;;;;;;6270498;28;20135;-72
2023/09/25 05:43:24;;;;;;;22.60;1.48;;;22.10;58.60;;;;;;6272748;28;20531;-72
2023/09/25 05:46:26;;;;;;;19.02;1.58;;;22.10;58.80;;;;;;6269954;28;20479;-71
2023/09/25 05:49:27;;;;;;;14.93;1.48;;;22.10;58.50;;;;;;6282505;28;20058;-68
2023/09/25 05:52:28;;;;;;;17.60;1.33;;;22.10;58.80;;;;;;6273142;28;20037;-69
2023/09/25 05:55:29;;;;;;;21.90;1.95;;;22.10;58.90;;;;;;6279678;28;20029;-70
2023/09/25 05:58:32;;;;;;;11.55;1.42;;;22.00;59.00;;;;;;6271943;28;20586;-70
2023/09/25 06:01:33;;;;;;;16.58;2.22;;;22.10;59.10;;;;;;6274820;28;20100;-69
2023/09/25 06:04:37;;;;;;;9.77;1.83;;;22.10;58.70;;;;;;6282729;28;20074;-69
2023/09/25 06:07:38;;;;;;;9.02;2.20;;;22.00;58.10;;;;;;6266279;28;20035;-70
2023/09/25 06:10:39;;;;;;;22.48;2.40;;;22.00;58.70;;;;;;6252547;28;20033;-72
2023/09/25 06:13:40;;;;;;;11.80;2.60;;;22.00;58.60;;;;;;6260039;28;20472;-69
2023/09/25 06:16:41;;;;;;;7.85;1.65;;;22.00;58.40;;;;;;6260636;28;20040;-70
2023/09/25 06:19:42;;;;;;;8.05;1.73;;;22.00;58.30;;;;;;6253035;28;20032;-70
2023/09/25 06:22:44;;;;;;;15.25;2.33;;;21.90;58.40;;;;;;6269029;28;20033;-70
2023/09/25 06:25:45;;;;;;;8.55;2.10;;;21.90;58.30;;;;;;6256912;28;20041;-70
2023/09/25 06:28:47;;;;;;;10.57;2.30;;;21.90;58.20;;;;;;6264501;28;20024;-70
2023/09/25 06:31:48;;;;;;;12.25;2.40;;;21.90;58.20;;;;;;6257946;28;20676;-69
2023/09/25 06:34:49;;;;;;;8.40;2.10;;;21.90;58.10;;;;;;6257560;28;20036;-71
2023/09/25 06:37:50;;;;;;;7.78;2.20;;;21.90;58.10;;;;;;6265607;28;20048;-70
2023/09/25 06:40:51;;;;;;;8.23;2.00;;;21.90;58.00;;;;;;6264513;28;20499;-70
2023/09/25 06:43:53;;;;;;;9.90;2.00;;;21.90;58.20;;;;;;6266873;28;20025;-71
2023/09/25 06:46:53;;;;;;;4.70;1.80;;;21.90;58.20;;;;;;6264317;28;20029;-69
2023/09/25 06:49:55;;;;;;;4.50;1.50;;;21.90;58.00;;;;;;6256940;28;20022;-70
2023/09/25 06:52:57;;;;;;;6.15;1.90;;;21.90;58.30;;;;;;6268854;28;20480;-70
2023/09/25 06:55:58;;;;;;;4.13;1.70;;;21.90;58.20;;;;;;6257621;28;20468;-70
2023/09/25 06:58:58;;;;;;;8.18;1.90;;;21.90;58.30;;;;;;6261952;28;20084;-70
2023/09/25 07:02:00;;;;;;;3.70;1.67;;;21.90;58.20;;;;;;6257633;28;20075;-70
2023/09/25 07:05:00;;;;;;;4.28;1.50;;;21.90;58.30;;;;;;6260337;28;20028;-69
2023/09/25 07:08:01;;;;;;;4.78;1.50;;;21.90;58.40;;;;;;6264047;28;20025;-73
2023/09/25 07:11:03;;;;;;;5.70;1.80;;;21.90;58.40;;;;;;6264966;28;20022;-69
2023/09/25 07:14:04;;;;;;;2.22;1.52;;;21.90;58.40;;;;;;6259771;28;20125;-70
2023/09/25 07:17:06;;;;;;;3.13;1.67;;;21.90;58.40;;;;;;6248739;28;20021;-71
2023/09/25 07:20:07;;;;;;;2.97;1.40;;;21.90;58.30;;;;;;6264870;28;20032;-70
2023/09/25 07:23:08;;;;;;;2.10;1.38;;;21.90;58.40;;;;;;6271905;28;20031;-70
2023/09/25 07:26:09;;;;;;;2.70;1.48;;;21.90;58.40;;;;;;6268256;28;20017;-71
2023/09/25 07:29:10;;;;;;;3.25;1.88;;;21.90;58.30;;;;;;6264396;28;20027;-70
2023/09/25 07:32:11;;;;;;;3.05;1.35;;;21.90;58.00;;;;;;6256307;28;20021;-70
2023/09/25 07:35:15;;;;;;;5.03;1.42;;;21.90;58.10;;;;;;6260344;28;20419;-69
2023/09/25 07:38:15;;;;;;;3.45;1.50;;;21.90;58.00;;;;;;6259640;28;20049;-69
2023/09/25 07:41:16;;;;;;;3.42;1.45;;;21.90;58.10;;;;;;6259003;28;20039;-70
2023/09/25 07:44:17;;;;;;;2.40;1.40;;;21.90;58.00;;;;;;6266985;28;20404;-70
2023/09/25 07:47:19;;;;;;;3.15;1.60;;;21.90;58.10;;;;;;6255921;28;20072;-70
2023/09/25 07:50:19;;;;;;;2.97;1.65;;;21.90;58.10;;;;;;6259690;28;20060;-70
2023/09/25 07:53:21;;;;;;;3.47;1.45;;;21.90;58.30;;;;;;6257721;28;20022;-70
2023/09/25 07:56:22;;;;;;;6.68;1.30;;;21.90;58.20;;;;;;6260458;28;20522;-69
2023/09/25 07:59:25;;;;;;;2.00;1.20;;;21.90;58.30;;;;;;6264005;28;20025;-69
2023/09/25 08:02:26;;;;;;;3.90;1.50;;;21.90;58.20;;;;;;6263574;28;20140;-70
2023/09/25 08:05:28;;;;;;;2.25;1.50;;;21.90;58.40;;;;;;6259649;28;20021;-70
2023/09/25 08:08:29;;;;;;;4.20;1.50;;;21.90;58.30;;;;;;6271762;28;20456;-70
2023/09/25 08:11:29;;;;;;;5.40;1.10;;;21.90;58.30;;;;;;6263440;28;20032;-70
2023/09/25 08:14:32;;;;;;;4.25;1.30;;;21.90;58.30;;;;;;6265916;28;20072;-69
2023/09/25 08:17:33;;;;;;;2.78;1.40;;;21.90;58.40;;;;;;6254956;28;20041;-69
2023/09/25 08:20:34;;;;;;;3.03;1.42;;;21.90;58.40;;;;;;6266217;28;20048;-70
2023/09/25 08:23:35;;;;;;;1.60;1.20;;;21.90;58.40;;;;;;6262451;28;20028;-69
2023/09/25 08:26:36;;;;;;;3.92;1.58;;;21.90;58.30;;;;;;6269888;28;20044;-70
2023/09/25 08:29:36;;;;;;;2.58;1.20;;;21.90;58.60;;;;;;6271413;28;20079;-70
2023/09/25 08:32:37;;;;;;;2.05;1.15;;;21.90;58.50;;;;;;6269596;28;20017;-70
2023/09/25 08:35:42;;;;;;;2.15;1.27;;;21.90;58.70;;;;;;6268842;28;20112;-70
2023/09/25 08:38:43;;;;;;;1.52;1.10;;;21.90;58.70;;;;;;6262178;28;20447;-70
2023/09/25 08:41:45;;;;;;;1.25;1.00;;;21.90;58.70;;;;;;6261684;28;20091;-69
2023/09/25 08:44:47;;;;;;;1.42;1.00;;;21.90;58.70;;;;;;6262806;28;20553;-71
2023/09/25 08:47:48;;;;;;;2.33;1.23;;;21.90;59.00;;;;;;6251780;28;20570;-70
2023/09/25 08:50:50;;;;;;;2.80;1.40;;;21.90;59.00;;;;;;6246646;28;20021;-70
2023/09/25 08:53:51;;;;;;;1.98;1.23;;;21.80;59.10;;;;;;6253913;28;20423;-70
2023/09/25 08:56:52;;;;;;;2.42;1.10;;;21.80;59.00;;;;;;6269467;28;20079;-69
2023/09/25 08:59:53;;;;;;;2.13;1.30;;;21.90;59.30;;;;;;6261334;28;20021;-70
2023/09/25 09:02:54;;;;;;;2.85;1.13;;;21.80;59.40;;;;;;6255358;28;20025;-70
2023/09/25 09:05:55;;;;;;;2.33;1.33;;;21.90;59.60;;;;;;6259781;28;20496;-72
2023/09/25 09:08:58;;;;;;;2.45;1.17;;;21.80;59.70;;;;;;6260929;28;20453;-70
2023/09/25 09:11:59;;;;;;;1.80;1.20;;;21.80;59.70;;;;;;6248199;28;20057;-69
2023/09/25 09:15:00;;;;;;;1.45;1.35;;;21.80;59.80;;;;;;6259513;28;20029;-70
2023/09/25 09:18:20;;;;;;;2.40;1.05;;;21.80;59.80;;;;;;6254503;28;20446;-70
2023/09/25 09:21:26;;;;;;;1.30;1.13;;;21.80;59.80;;;;;;6257603;28;20032;-70
2023/09/25 09:24:30;;;;;;;1.60;1.10;;;21.80;59.80;;;;;;6270319;28;20032;-70
2023/09/25 09:27:32;;;;;;;1.77;0.90;;;21.80;59.90;;;;;;6251869;28;20036;-70
2023/09/25 09:30:33;;;;;;;2.15;1.13;;;21.80;59.90;;;;;;6262071;28;20486;-70
2023/09/25 09:33:41;;;;;;;1.88;1.17;;;21.80;59.90;;;;;;6270046;28;20025;-70
2023/09/25 09:36:53;;;;;;;5.03;1.20;;;21.80;60.00;;;;;;6262121;28;20027;-70
2023/09/25 09:39:55;;;;;;;2.25;1.08;;;21.80;60.00;;;;;;6268859;28;20466;-70
2023/09/25 09:42:56;;;;;;;1.77;1.00;;;21.80;60.10;;;;;;6259406;28;20036;-71
2023/09/25 09:45:57;;;;;;;4.00;1.20;;;21.80;60.00;;;;;;6252778;28;20079;-70
2023/09/25 09:49:00;;;;;;;1.55;1.20;;;21.80;59.90;;;;;;6253650;28;20480;-70
2023/09/25 09:52:03;;;;;;;1.85;1.00;;;21.80;59.70;;;;;;6265016;28;20021;-70
2023/09/25 09:55:05;;;;;;;1.55;1.10;;;21.80;60.10;;;;;;6253042;28;20025;-71
2023/09/25 09:58:07;;;;;;;1.10;1.00;;;21.80;59.90;;;;;;6258434;28;20052;-70
2023/09/25 10:01:08;;;;;;;1.73;1.15;;;21.80;59.70;;;;;;6266522;28;20029;-70
2023/09/25 10:04:10;;;;;;;1.85;1.17;;;21.80;59.70;;;;;;6266536;28;20116;-70
2023/09/25 10:07:12;;;;;;;1.83;0.85;;;21.80;59.50;;;;;;6258133;28;20060;-71
2023/09/25 10:10:13;;;;;;;1.20;1.02;;;21.80;60.00;;;;;;6261376;28;20421;-70
2023/09/25 10:13:21;;;;;;;1.45;1.20;;;21.80;59.70;;;;;;6254428;28;20017;-70
2023/09/25 10:16:22;;;;;;;0.80;0.80;;;21.80;59.70;;;;;;6265206;28;20033;-70
2023/09/25 10:19:53;;;;;;;1.42;1.00;;;21.80;59.80;;;;;;6265178;28;20060;-69
2023/09/25 10:22:53;;;;;;;1.58;1.20;;;21.80;59.90;;;;;;6271388;28;20033;-70
2023/09/25 10:26:05;;;;;;;1.65;1.30;;;21.80;60.00;;;;;;6267290;28;20110;-70
2023/09/25 10:29:15;;;;;;;2.35;1.33;;;21.80;59.90;;;;;;6274008;28;20079;-70
2023/09/25 10:32:30;;;;;;;2.00;1.20;;;21.80;60.90;;;;;;6274193;28;20159;-70
2023/09/25 10:35:44;;;;;;;1.27;1.08;;;21.80;59.60;;;;;;6273983;28;20035;-70
2023/09/25 10:38:54;;;;;;;2.53;1.30;;;21.80;59.90;;;;;;6274022;28;20041;-69
2023/09/25 10:42:08;;;;;;;1.33;1.00;;;21.80;59.70;;;;;;6265642;28;20065;-70
2023/09/25 10:45:09;;;;;;;1.55;1.05;;;21.80;60.10;;;;;;6264058;28;20036;-70
2023/09/25 10:48:10;;;;;;;1.50;1.00;;;21.80;59.70;;;;;;6256835;28;20120;-70
2023/09/25 10:51:10;;;;;;;1.52;1.05;;;21.80;59.20;;;;;;6269135;28;20129;-70
2023/09/25 10:54:11;;;;;;;1.40;1.00;;;21.80;59.60;;;;;;6255813;28;20026;-69
2023/09/25 10:57:12;;;;;;;1.88;1.23;;;21.80;59.00;;;;;;6268969;28;20040;-70
2023/09/25 11:00:17;;;;;;;1.67;1.15;;;21.80;59.10;;;;;;6264928;28;20099;-70
2023/09/25 11:03:19;;;;;;;1.50;1.00;;;21.80;59.00;;;;;;6256877;28;20546;-69
2023/09/25 11:06:19;;;;;;;1.60;0.98;;;21.80;58.90;;;;;;6265243;28;20064;-70
2023/09/25 11:09:20;;;;;;;2.38;1.35;;;21.80;59.70;;;;;;6262335;28;20101;-70
2023/09/25 11:12:21;;;;;;;1.50;0.93;;;21.80;59.20;;;;;;6266314;28;20439;-70
2023/09/25 11:15:22;;;;;;;1.48;0.98;;;21.90;59.20;;;;;;6261205;28;20033;-70
2023/09/25 11:18:23;;;;;;;2.83;1.13;;;21.80;59.80;;;;;;6267915;28;20033;-69
2023/09/25 11:21:32;;;;;;;1.90;1.00;;;21.80;59.70;;;;;;6264082;28;20567;-71
2023/09/25 11:24:33;;;;;;;1.33;1.00;;;21.80;59.70;;;;;;6268238;28;20500;-70
2023/09/25 11:27:35;;;;;;;1.67;1.08;;;21.80;59.90;;;;;;6265699;28;20028;-70
2023/09/25 11:30:38;;;;;;;1.60;0.90;;;21.80;59.90;;;;;;6260594;28;20025;-69
2023/09/25 11:33:39;;;;;;;1.05;0.95;;;21.80;59.90;;;;;;6264984;28;20029;-70
2023/09/25 11:36:45;;;;;;;1.00;0.88;;;21.80;59.60;;;;;;6261162;28;20039;-70
2023/09/25 11:39:47;;;;;;;1.27;1.02;;;21.80;59.70;;;;;;6263163;28;20092;-71
2023/09/25 11:42:47;;;;;;;1.90;1.13;;;21.80;60.00;;;;;;6267873;28;20070;-70
2023/09/25 11:45:48;;;;;;;1.77;1.10;;;21.80;59.40;;;;;;6272543;28;20025;-70
2023/09/25 11:48:49;;;;;;;1.58;1.00;;;21.80;59.30;;;;;;6270873;28;20438;-71
2023/09/25 11:51:50;;;;;;;1.10;0.80;;;21.80;59.60;;;;;;6256136;28;20018;-70
2023/09/25 11:54:50;;;;;;;1.17;1.00;;;21.80;59.40;;;;;;6255219;28;20484;-70
2023/09/25 11:57:51;;;;;;;3.38;1.00;;;21.80;59.60;;;;;;6270597;28;20028;-71
2023/09/25 12:00:52;;;;;;;1.00;0.85;;;21.80;59.70;;;;;;6265994;28;20551;-70
2023/09/25 12:03:52;;;;;;;1.17;0.93;;;21.80;59.60;;;;;;6264653;28;20021;-70
2023/09/25 12:06:53;;;;;;;1.13;0.80;;;21.80;59.50;;;;;;6263778;28;20056;-70
2023/09/25 12:09:55;;;;;;;1.00;0.90;;;21.80;59.50;;;;;;6262535;28;20057;-70
2023/09/25 12:12:56;;;;;;;1.20;0.90;;;21.80;59.20;;;;;;6270537;28;20025;-69
2023/09/25 12:15:57;;;;;;;1.15;0.82;;;21.90;59.50;;;;;;6270905;28;20028;-71
2023/09/25 12:18:58;;;;;;;1.05;0.70;;;21.80;59.40;;;;;;6255711;28;20026;-70
2023/09/25 12:21:58;;;;;;;0.90;0.80;;;21.80;59.40;;;;;;6256373;28;20033;-70
2023/09/25 12:24:59;;;;;;;1.20;0.90;;;21.80;59.70;;;;;;6262142;28;20506;-71
2023/09/25 12:28:00;;;;;;;1.10;0.80;;;21.80;59.90;;;;;;6264893;28;20475;-70
2023/09/25 12:31:00;;;;;;;0.82;0.70;;;21.80;59.60;;;;;;6261792;28;20021;-69
2023/09/25 12:34:01;;;;;;;2.17;0.90;;;21.80;59.80;;;;;;6269467;28;20411;-70
2023/09/25 12:37:02;;;;;;;2.15;0.93;;;21.80;60.20;;;;;;6261644;28;20387;-70
2023/09/25 12:40:03;;;;;;;1.02;0.90;;;21.80;60.20;;;;;;6259207;28;20049;-70
2023/09/25 12:43:04;;;;;;;1.52;0.90;;;21.80;60.00;;;;;;6257127;28;20436;-70
2023/09/25 12:46:05;;;;;;;1.15;0.88;;;21.80;60.10;;;;;;6264500;28;20036;-70
2023/09/25 12:49:06;;;;;;;0.80;0.70;;;21.80;59.90;;;;;;6270222;28;20475;-70
2023/09/25 12:52:07;;;;;;;1.65;0.90;;;21.80;60.00;;;;;;6261180;28;20025;-70
2023/09/25 12:55:08;;;;;;;1.15;0.80;;;21.80;59.80;;;;;;6264790;28;20505;-70
2023/09/25 12:58:09;;;;;;;0.80;0.73;;;21.80;60.00;;;;;;6267318;28;20029;-70
2023/09/25 13:01:10;;;;;;;0.90;0.80;;;21.80;60.10;;;;;;6265653;28;20024;-70
2023/09/25 13:04:10;;;;;;;0.93;0.73;;;21.80;60.00;;;;;;6269873;28;20025;-71
2023/09/25 13:07:11;;;;;;;0.93;0.80;;;21.80;60.10;;;;;;6270957;28;20021;-70
2023/09/25 13:10:12;;;;;;;1.00;0.90;;;21.80;60.10;;;;;;6258031;28;20078;-69
2023/09/25 13:13:13;;;;;;;1.08;0.90;;;21.80;60.10;;;;;;6253438;28;20045;-70
2023/09/25 13:16:13;;;;;;;1.20;0.82;;;21.80;60.10;;;;;;6256587;28;20025;-71
2023/09/25 13:19:14;;;;;;;1.00;0.90;;;21.80;60.00;;;;;;6262669;28;20614;-70
2023/09/25 13:22:15;;;;;;;0.93;0.70;;;21.80;60.20;;;;;;6265115;28;20057;-70
2023/09/25 13:25:16;;;;;;;2.42;0.75;;;21.80;59.90;;;;;;6260164;28;20056;-70
2023/09/25 13:28:17;;;;;;;1.00;0.80;;;21.80;59.90;;;;;;6261173;28;20391;-70
2023/09/25 13:31:18;;;;;;;1.10;1.00;;;21.80;59.80;;;;;;6267897;28;20029;-70
2023/09/25 13:34:19;;;;;;;1.15;0.80;;;21.80;59.70;;;;;;6260942;28;20611;-70
2023/09/25 13:37:19;;;;;;;1.95;1.08;;;21.80;59.80;;;;;;6261896;28;20040;-70
2023/09/25 13:40:21;;;;;;;0.88;0.77;;;21.80;60.00;;;;;;6261196;28;20032;-70
2023/09/25 13:43:21;;;;;;;1.25;0.80;;;21.80;59.70;;;;;;6269258;28;20021;-70
2023/09/25 13:46:22;;;;;;;5.20;0.98;;;21.80;59.80;;;;;;6254428;28;20025;-70
2023/09/25 13:49:23;;;;;;;1.10;0.82;;;21.80;60.00;;;;;;6261781;28;20091;-70
2023/09/25 13:52:23;;;;;;;2.88;0.75;;;21.80;59.80;;;;;;6260870;28;20483;-70
2023/09/25 13:55:24;;;;;;;3.38;1.00;;;21.80;59.70;;;;;;6263798;28;20028;-70
2023/09/25 13:58:25;;;;;;;1.02;0.80;;;21.80;59.70;;;;;;6252451;28;20033;-70
2023/09/25 14:01:25;;;;;;;0.75;0.68;;;21.80;59.90;;;;;;6264682;28;20491;-70
2023/09/25 14:04:27;;;;;;;1.00;0.90;;;21.80;59.90;;;;;;6270078;28;20036;-70
2023/09/25 14:07:27;;;;;;;1.00;0.85;;;21.80;59.70;;;;;;6268566;28;20044;-70
2023/09/25 14:10:28;;;;;;;0.88;0.65;;;21.80;59.70;;;;;;6264124;28;20169;-70
2023/09/25 14:13:29;;;;;;;1.08;0.80;;;21.80;59.70;;;;;;6261513;28;20549;-70
2023/09/25 14:16:30;;;;;;;0.98;0.70;;;21.80;59.80;;;;;;6258030;28;20108;-70
2023/09/25 14:19:30;;;;;;;1.15;0.77;;;21.80;59.90;;;;;;6255762;28;20030;-70
2023/09/25 14:22:32;;;;;;;0.80;0.70;;;21.80;60.10;;;;;;6265881;28;20514;-72
2023/09/25 14:25:33;;;;;;;1.15;0.70;;;21.80;59.90;;;;;;6260296;28;20025;-70
2023/09/25 14:28:33;;;;;;;1.27;0.82;;;21.80;60.00;;;;;;6269219;28;20441;-70
2023/09/25 14:31:34;;;;;;;1.10;0.82;;;21.80;59.90;;;;;;6260664;28;20064;-69
2023/09/25 14:34:35;;;;;;;1.02;0.70;;;21.80;59.90;;;;;;6269281;28;20025;-70
2023/09/25 14:37:38;;;;;;;0.85;0.60;;;21.80;59.90;;;;;;6260958;28;20045;-70
2023/09/25 14:40:39;;;;;;;0.80;0.68;;;21.80;59.90;;;;;;6269622;28;20081;-70
2023/09/25 14:43:39;;;;;;;1.27;0.82;;;21.80;59.90;;;;;;6259956;28;20400;-69
2023/09/25 14:46:40;;;;;;;0.70;0.70;;;21.80;60.00;;;;;;6263742;28;20044;-70
2023/09/25 14:49:41;;;;;;;1.45;0.90;;;21.80;59.90;;;;;;6273651;28;20035;-69
2023/09/25 14:52:41;;;;;;;1.20;0.55;;;21.80;60.10;;;;;;6273760;28;20422;-70
2023/09/25 14:55:43;;;;;;;1.33;0.80;;;21.80;60.20;;;;;;6266447;28;20071;-70
2023/09/25 14:58:43;;;;;;;0.55;0.50;;;21.80;60.00;;;;;;6266230;28;20457;-69
2023/09/25 15:01:44;;;;;;;0.90;0.60;;;21.80;59.90;;;;;;6253011;28;20034;-70
2023/09/25 15:04:45;;;;;;;0.90;0.70;;;21.80;60.00;;;;;;6264985;28;20025;-70
2023/09/25 15:07:45;;;;;;;1.23;0.80;;;21.80;60.30;;;;;;6277165;28;21073;-70
2023/09/25 15:10:46;;;;;;;0.88;0.70;;;21.80;60.00;;;;;;6278180;28;20021;-70
2023/09/25 15:13:47;;;;;;;3.25;0.80;;;21.80;60.20;;;;;;6270400;28;20483;-70
2023/09/25 15:16:49;;;;;;;2.65;0.70;;;21.80;60.00;;;;;;6270101;28;20075;-70
2023/09/25 15:19:50;;;;;;;0.65;0.50;;;21.80;60.00;;;;;;6275935;28;20029;-70
2023/09/25 15:22:51;;;;;;;0.77;0.70;;;21.80;60.40;;;;;;6293301;28;20111;-70
2023/09/25 15:25:51;;;;;;;0.90;0.75;;;21.80;60.30;;;;;;6262977;28;20112;-69
2023/09/25 15:28:54;;;;;;;4.88;0.60;;;21.90;60.40;;;;;;6255124;28;20029;-69
2023/09/25 15:31:54;;;;;;;0.93;0.65;;;21.90;61.00;;;;;;6255951;28;20113;-69
2023/09/25 15:34:55;;;;;;;0.52;0.52;;;21.90;61.00;;;;;;6272865;28;20531;-69
2023/09/25 15:37:56;;;;;;;4.20;0.60;;;21.90;61.10;;;;;;6264318;28;20042;-69
2023/09/25 15:40:56;;;;;;;3.33;0.75;;;21.80;61.30;;;;;;6264698;28;20025;-69
2023/09/25 15:43:57;;;;;;;1.77;0.65;;;21.80;61.10;;;;;;6263106;28;20519;-69